createdAt,value
2023-03-06T04:59:58.831Z,12.67
2023-03-06T05:02:25.421Z,12.77
2023-03-06T05:04:52.011Z,14.93
2023-03-06T05:07:18.560Z,11.68
2023-03-06T05:09:45.053Z,11.30
2023-03-06T05:12:11.579Z,14.50
2023-03-06T05:14:38.167Z,13.87
2023-03-06T05:17:04.718Z,12.60
2023-03-06T05:19:31.280Z,14.18
2023-03-06T05:21:57.790Z,11.27
2023-03-06T05:24:24.314Z,11.35
2023-03-06T05:26:50.845Z,12.20
2023-03-06T05:29:17.313Z,12.25
2023-03-06T05:31:43.963Z,12.80
2023-03-06T05:34:13.881Z,14.38
2023-03-06T05:36:40.478Z,12.93
2023-03-06T05:39:07.686Z,13.20
2023-03-06T05:41:34.231Z,15.13
2023-03-06T05:44:00.746Z,13.32
2023-03-06T05:46:27.410Z,19.17
2023-03-06T05:48:57.907Z,11.27
2023-03-06T05:51:25.264Z,13.17
2023-03-06T05:53:51.718Z,14.65
2023-03-06T05:56:19.105Z,15.65
2023-03-06T07:13:26.790Z,17.88
2023-03-06T07:15:55.856Z,14.43
2023-03-06T07:18:22.461Z,13.05
2023-03-06T07:20:49.007Z,14.18
2023-03-06T07:23:15.556Z,16.13
2023-03-06T07:25:42.228Z,14.90
2023-03-06T07:28:08.851Z,16.70
2023-03-06T07:30:35.744Z,20.27
2023-03-06T07:33:02.493Z,16.45
2023-03-06T07:35:31.399Z,14.33
2023-03-06T07:37:58.304Z,16.23
2023-03-06T07:40:27.909Z,16.95
2023-03-06T07:42:59.195Z,15.00
2023-03-06T07:45:32.196Z,14.90
2023-03-06T07:47:58.752Z,16.27
2023-03-06T07:50:25.322Z,13.07
2023-03-06T07:52:52.359Z,17.92
2023-03-06T07:55:21.440Z,16.05
2023-03-06T07:57:51.350Z,24.23
2023-03-06T08:00:23.973Z,14.90
2023-03-06T08:02:50.586Z,13.18
2023-03-06T08:05:17.322Z,14.23
2023-03-06T08:07:45.233Z,14.50
2023-03-06T08:10:16.558Z,17.15
2023-03-06T08:12:45.486Z,16.17
2023-03-06T08:15:12.855Z,15.85
2023-03-06T08:17:39.550Z,17.20
2023-03-06T08:20:07.634Z,13.30
2023-03-06T08:22:34.913Z,20.85
2023-03-06T08:25:08.003Z,12.50
2023-03-06T08:27:35.516Z,14.93
2023-03-06T08:30:05.112Z,16.55
2023-03-06T08:32:31.757Z,17.95
2023-03-06T08:34:58.366Z,16.55
2023-03-06T08:37:24.933Z,15.23
2023-03-06T08:39:51.553Z,16.23
2023-03-06T08:42:18.206Z,15.45
2023-03-06T08:44:44.902Z,16.17
2023-03-06T08:47:16.028Z,17.65
2023-03-06T08:49:42.664Z,17.37
2023-03-06T08:52:09.411Z,18.13
2023-03-06T08:54:36.140Z,16.80
2023-03-06T08:57:05.258Z,18.13
2023-03-06T08:59:34.061Z,15.05
2023-03-06T09:02:01.631Z,17.10
2023-03-06T09:04:30.223Z,15.73
2023-03-06T09:06:56.770Z,20.80
2023-03-06T09:09:23.350Z,14.93
2023-03-06T09:11:51.266Z,17.10
2023-03-06T09:14:20.032Z,13.93
2023-03-06T09:16:46.656Z,18.38
2023-03-06T09:19:13.323Z,16.23
2023-03-06T09:21:41.753Z,18.92
2023-03-06T09:24:10.866Z,17.38
2023-03-06T09:26:46.296Z,14.70
2023-03-06T09:29:17.174Z,19.48
2023-03-06T09:31:44.703Z,15.95
2023-03-06T09:34:11.281Z,15.98
2023-03-06T09:36:53.326Z,17.77
2023-03-06T09:39:24.370Z,17.23
2023-03-06T09:41:53.513Z,22.60
2023-03-06T09:44:26.192Z,15.38
2023-03-06T09:47:13.660Z,18.83
2023-03-06T09:49:52.451Z,16.13
2023-03-06T09:52:33.690Z,18.07
2023-03-06T09:55:12.184Z,20.95
2023-03-06T09:57:50.527Z,18.42
2023-03-06T10:00:46.279Z,15.95
2023-03-06T10:03:26.379Z,18.73
2023-03-06T10:05:57.930Z,18.80
2023-03-06T10:08:48.751Z,16.83
2023-03-06T10:11:20.252Z,15.85
2023-03-06T10:14:12.608Z,17.17
2023-03-06T10:16:40.361Z,19.50
2023-03-06T10:19:21.641Z,21.70
2023-03-06T10:21:59.883Z,19.67
2023-03-06T10:24:39.593Z,20.00
2023-03-06T10:27:32.967Z,17.58
2023-03-06T10:30:44.668Z,19.50
2023-03-06T10:33:26.210Z,18.00
2023-03-06T10:35:54.979Z,20.42
2023-03-06T10:38:37.570Z,21.88
2023-03-06T10:41:07.358Z,23.25
2023-03-06T10:43:36.500Z,16.58
2023-03-06T10:46:05.357Z,20.93
2023-03-06T10:48:36.024Z,22.13
2023-03-06T10:51:23.610Z,23.40
2023-03-06T10:54:17.614Z,19.60
2023-03-06T10:56:46.317Z,23.23
2023-03-06T10:59:17.798Z,18.70
2023-03-06T11:01:51.817Z,18.83
2023-03-06T11:04:32.169Z,21.05
2023-03-06T11:07:18.145Z,17.25
2023-03-06T11:10:08.002Z,16.48
2023-03-06T11:12:36.776Z,22.50
2023-03-06T11:15:17.680Z,19.85
2023-03-06T11:18:01.046Z,20.35
2023-03-06T11:20:52.545Z,20.35
2023-03-06T11:23:19.480Z,20.60
2023-03-06T11:25:56.231Z,21.50
2023-03-06T11:28:34.842Z,19.90
2023-03-06T11:31:34.122Z,18.30
2023-03-06T11:34:19.462Z,21.13
2023-03-06T11:37:03.486Z,21.05
2023-03-06T11:39:36.052Z,21.33
2023-03-06T11:42:15.819Z,19.25
2023-03-06T11:44:50.628Z,19.40
2023-03-06T11:47:20.264Z,22.17
2023-03-06T11:50:04.359Z,19.90
2023-03-06T11:52:48.453Z,20.90
2023-03-06T11:55:45.665Z,19.42
2023-03-06T11:58:38.311Z,18.27
2023-03-06T12:01:11.091Z,17.00
2023-03-06T12:03:57.895Z,23.35
2023-03-06T12:06:30.519Z,20.60
2023-03-06T12:09:22.459Z,19.42
2023-03-06T12:12:01.236Z,21.83
2023-03-06T12:14:46.755Z,22.23
2023-03-06T12:17:19.001Z,20.63
2023-03-06T12:20:05.193Z,23.10
2023-03-06T12:22:39.923Z,19.98
2023-03-06T12:25:19.429Z,28.45
2023-03-06T12:28:01.869Z,19.73
2023-03-06T12:30:39.345Z,19.63
2023-03-06T12:33:30.016Z,22.90
2023-03-06T12:36:04.216Z,23.00
2023-03-06T12:38:52.519Z,21.25
2023-03-06T12:41:51.473Z,21.42
2023-03-06T12:44:47.069Z,20.88
2023-03-06T12:47:18.385Z,22.07
2023-03-06T12:49:50.708Z,21.60
2023-03-06T12:52:30.290Z,27.20
2023-03-06T12:55:07.553Z,22.70
2023-03-06T12:57:34.184Z,21.42
2023-03-06T13:00:03.828Z,24.73
2023-03-06T13:03:16.401Z,22.08
2023-03-06T13:05:54.958Z,20.55
2023-03-06T13:08:56.909Z,22.20
2023-03-06T13:11:26.574Z,24.45
2023-03-06T13:13:53.402Z,23.57
2023-03-06T13:16:29.374Z,24.25
2023-03-06T13:19:25.754Z,24.55
2023-03-06T13:21:55.326Z,22.05
2023-03-06T13:24:35.638Z,19.25
2023-03-06T13:27:04.855Z,20.63
2023-03-06T13:29:37.528Z,20.42
2023-03-06T13:32:04.106Z,20.48
2023-03-06T13:34:39.852Z,21.85
2023-03-06T13:37:18.708Z,22.52
2023-03-06T13:39:59.770Z,22.23
2023-03-06T13:42:30.143Z,23.42
2023-03-06T13:45:31.883Z,22.85
2023-03-06T13:48:24.492Z,24.17
2023-03-06T13:50:51.503Z,22.80
2023-03-06T13:53:49.126Z,25.73
2023-03-06T13:56:15.624Z,25.13
2023-03-06T13:58:49.407Z,21.55
2023-03-06T14:01:26.055Z,20.23
2023-03-06T14:04:01.655Z,23.23
2023-03-06T14:06:34.427Z,22.93
2023-03-06T14:09:12.937Z,26.02
2023-03-06T14:11:49.420Z,23.65
2023-03-06T14:14:16.562Z,21.92
2023-03-06T14:16:50.680Z,21.45
2023-03-06T14:19:17.949Z,26.20
2023-03-06T14:21:50.110Z,27.95
2023-03-06T14:24:18.988Z,23.90
2023-03-06T14:26:49.453Z,24.45
2023-03-06T14:29:21.512Z,23.15
2023-03-06T14:31:54.549Z,24.63
2023-03-06T14:34:23.145Z,24.17
2023-03-06T14:36:53.065Z,22.42
2023-03-06T14:39:37.043Z,26.58
2023-03-06T14:42:21.897Z,25.65
2023-03-06T14:44:49.577Z,22.10
2023-03-06T14:47:30.864Z,23.65
2023-03-06T14:50:33.558Z,25.00
2023-03-06T14:53:09.194Z,23.83
2023-03-06T14:55:36.248Z,29.65
2023-03-06T14:58:08.284Z,28.83
2023-03-06T15:00:37.323Z,23.83
2023-03-06T15:03:12.627Z,20.75
2023-03-06T15:05:40.420Z,27.50
2023-03-06T15:08:13.030Z,28.75
2023-03-06T15:10:39.626Z,24.00
2023-03-06T15:13:23.362Z,24.60
2023-03-06T15:16:02.042Z,23.83
2023-03-06T15:18:40.632Z,24.55
2023-03-06T15:21:21.202Z,24.27
2023-03-06T15:23:55.639Z,21.03
2023-03-06T15:26:28.037Z,23.05
2023-03-06T15:29:08.140Z,26.40
2023-03-06T15:31:45.564Z,25.98
2023-03-06T15:34:12.292Z,24.75
2023-03-06T15:36:47.400Z,26.10
2023-03-06T15:39:30.531Z,26.15
2023-03-06T15:42:01.010Z,29.92
2023-03-06T15:44:32.195Z,23.23
2023-03-06T15:47:08.398Z,24.92
2023-03-06T15:49:37.508Z,27.30
2023-03-06T15:52:04.740Z,26.05
2023-03-06T15:54:32.917Z,23.60
2023-03-06T15:56:59.688Z,31.10
2023-03-06T15:59:31.266Z,26.08
2023-03-06T16:02:10.903Z,22.50
2023-03-06T16:04:39.564Z,27.35
2023-03-06T16:07:06.155Z,22.40
2023-03-06T16:09:32.898Z,23.20
2023-03-06T16:11:59.538Z,25.52
2023-03-06T16:14:26.221Z,26.10
2023-03-06T16:16:54.345Z,22.55
2023-03-06T16:19:27.422Z,23.48
2023-03-06T16:21:55.196Z,25.10
2023-03-06T16:24:21.987Z,22.63
2023-03-06T16:26:57.149Z,23.70
2023-03-06T16:29:25.673Z,24.65
2023-03-06T16:31:55.239Z,27.50
2023-03-06T16:34:22.091Z,24.33
2023-03-06T16:36:49.479Z,25.23
2023-03-06T16:39:22.005Z,22.63
2023-03-06T16:41:51.372Z,21.83
2023-03-06T16:44:18.148Z,21.90
2023-03-06T16:46:47.083Z,21.70
2023-03-06T16:49:17.672Z,24.20
2023-03-06T16:51:45.200Z,24.40
2023-03-06T16:54:14.157Z,24.55
2023-03-06T16:56:41.232Z,24.73
2023-03-06T16:59:08.012Z,23.20
2023-03-06T17:01:34.641Z,23.88
2023-03-06T17:04:01.243Z,21.73
2023-03-06T17:06:28.349Z,25.63
2023-03-06T17:08:57.860Z,25.35
2023-03-06T17:11:24.985Z,27.08
2023-03-06T17:13:51.471Z,26.38
2023-03-06T17:16:18.049Z,27.03
2023-03-06T17:18:45.649Z,27.40
2023-03-06T17:21:12.683Z,28.13
2023-03-06T17:23:39.196Z,23.45
2023-03-06T17:26:07.974Z,25.35
2023-03-06T17:28:37.722Z,27.27
2023-03-06T17:31:26.614Z,25.42
2023-03-06T17:33:57.157Z,25.60
2023-03-06T17:36:23.734Z,24.42
2023-03-06T17:38:53.765Z,25.75
2023-03-06T17:41:24.350Z,23.80
2023-03-06T17:43:52.170Z,23.60
2023-03-06T17:46:19.150Z,29.20
2023-03-06T17:48:48.127Z,25.20
2023-03-06T17:51:14.713Z,25.30
2023-03-06T17:53:41.417Z,24.83
2023-03-06T17:56:10.789Z,21.45
2023-03-06T17:58:37.384Z,24.85
2023-03-06T18:01:18.480Z,22.15
2023-03-06T18:03:47.416Z,23.30
2023-03-06T18:06:14.154Z,26.13
2023-03-06T18:08:43.693Z,24.77
2023-03-06T18:11:10.611Z,23.13
2023-03-06T18:13:39.675Z,24.15
2023-03-06T18:16:07.394Z,26.45
2023-03-06T18:18:34.120Z,24.33
2023-03-06T18:21:09.678Z,28.90
2023-03-06T18:23:39.984Z,27.42
2023-03-06T18:26:13.686Z,27.20
2023-03-06T18:28:42.565Z,21.17
2023-03-06T18:31:25.866Z,25.47
2023-03-06T18:33:54.956Z,26.27
2023-03-06T18:36:23.408Z,24.88
2023-03-06T18:38:50.295Z,26.73
2023-03-06T18:41:18.605Z,28.13
2023-03-06T18:43:51.398Z,26.73
2023-03-06T18:46:17.917Z,26.98
2023-03-06T18:48:44.395Z,26.33
2023-03-06T18:51:12.135Z,22.40
2023-03-06T18:53:40.095Z,24.13
2023-03-06T18:56:07.959Z,22.20
2023-03-06T18:58:34.686Z,24.98
2023-03-06T19:01:08.902Z,23.75
2023-03-06T19:03:35.835Z,24.30
2023-03-06T19:06:20.858Z,22.80
2023-03-06T19:08:47.446Z,24.70
2023-03-06T19:11:16.609Z,20.88
2023-03-06T19:13:43.615Z,24.23
2023-03-06T19:16:17.648Z,22.90
2023-03-06T19:18:44.230Z,31.33
2023-03-06T19:21:21.276Z,24.70
2023-03-06T19:23:47.939Z,23.88
2023-03-06T19:26:14.549Z,21.13
2023-03-06T19:28:42.405Z,26.23
2023-03-06T19:31:13.252Z,22.23
2023-03-06T19:33:40.282Z,25.80
2023-03-06T19:36:08.981Z,29.20
2023-03-06T19:38:35.582Z,22.63
2023-03-06T19:41:02.322Z,23.35
2023-03-06T19:43:29.938Z,22.90
2023-03-06T19:45:56.978Z,24.30
2023-03-06T19:48:24.127Z,27.48
2023-03-06T19:50:50.645Z,23.98
2023-03-06T19:53:17.156Z,28.33
2023-03-06T19:55:43.622Z,25.95
2023-03-06T19:58:13.529Z,24.17
2023-03-06T20:00:41.478Z,27.90
2023-03-06T20:03:07.962Z,26.13
2023-03-06T20:05:34.485Z,28.73
2023-03-06T20:08:01.019Z,23.73
2023-03-06T20:10:27.569Z,29.67
2023-03-06T20:12:56.541Z,23.77
2023-03-06T20:15:23.103Z,30.70
2023-03-06T20:17:49.638Z,28.83
2023-03-06T20:20:16.350Z,28.55
2023-03-06T20:22:42.921Z,27.13
2023-03-06T20:25:09.632Z,25.67
2023-03-06T20:27:36.255Z,23.83
2023-03-06T20:30:03.325Z,27.02
2023-03-06T20:32:29.979Z,28.63
2023-03-06T20:34:56.478Z,26.50
2023-03-06T20:37:23.017Z,27.13
2023-03-06T20:39:49.603Z,31.50
2023-03-06T20:42:17.732Z,32.78
2023-03-06T20:44:44.284Z,27.98
2023-03-06T20:47:10.808Z,29.07
2023-03-06T20:49:38.241Z,32.03
2023-03-06T20:52:04.829Z,27.77
2023-03-06T20:54:31.358Z,28.50
2023-03-06T20:56:57.979Z,31.58
2023-03-06T20:59:27.482Z,29.70
2023-03-06T21:01:54.139Z,31.75
2023-03-06T21:04:20.650Z,37.33
2023-03-06T21:06:47.362Z,32.67
2023-03-06T21:09:16.210Z,32.10
